createdAt,value
2023-05-20T00:00:32.854Z,84.66
2023-05-20T00:01:37.738Z,84.59
2023-05-20T00:02:44.095Z,84.59
2023-05-20T00:03:49.218Z,84.57
2023-05-20T00:04:54.730Z,84.40
2023-05-20T00:05:58.975Z,84.67
2023-05-20T00:07:02.906Z,84.36
2023-05-20T00:08:10.238Z,84.19
2023-05-20T00:09:13.861Z,84.27
2023-05-20T00:10:18.107Z,84.39
2023-05-20T00:11:21.568Z,84.28
2023-05-20T00:12:25.774Z,84.42
2023-05-20T00:13:29.352Z,84.28
2023-05-20T00:14:33.694Z,84.47
2023-05-20T00:15:37.619Z,84.30
2023-05-20T00:16:43.226Z,84.29
2023-05-20T00:17:47.456Z,84.64
2023-05-20T00:18:51.820Z,84.91
2023-05-20T00:19:56.577Z,84.92
2023-05-20T00:21:01.178Z,84.77
2023-05-20T00:22:07.183Z,84.84
2023-05-20T00:23:11.779Z,85.01
2023-05-20T00:24:15.206Z,85.14
2023-05-20T00:25:20.234Z,85.14
2023-05-20T00:26:23.958Z,85.37
2023-05-20T00:27:28.267Z,85.38
2023-05-20T00:28:32.076Z,85.64
2023-05-20T00:29:36.742Z,85.79
2023-05-20T00:30:41.577Z,85.69
2023-05-20T00:31:45.856Z,85.72
2023-05-20T00:32:50.303Z,85.87
2023-05-20T00:33:54.475Z,85.84
2023-05-20T00:34:59.927Z,85.88
2023-05-20T00:36:04.173Z,86.20
2023-05-20T00:37:08.265Z,86.07
2023-05-20T00:38:13.166Z,86.15
2023-05-20T00:39:17.180Z,86.60
2023-05-20T00:40:23.803Z,86.24
2023-05-20T00:41:27.985Z,86.52
2023-05-20T00:42:32.263Z,86.69
2023-05-20T00:43:35.836Z,86.63
2023-05-20T00:44:40.604Z,86.56
2023-05-20T00:45:44.526Z,86.88
2023-05-20T00:46:50.139Z,86.87
2023-05-20T00:47:53.796Z,86.91
2023-05-20T00:48:59.298Z,86.87
2023-05-20T00:50:04.775Z,86.86
2023-05-20T00:51:09.662Z,86.70
2023-05-20T00:52:13.190Z,86.73
2023-05-20T00:53:19.789Z,87.07
2023-05-20T00:54:23.913Z,87.11
2023-05-20T00:55:28.498Z,86.93
2023-05-20T00:56:32.383Z,87.10
2023-05-20T00:57:37.665Z,86.89
2023-05-20T00:58:42.016Z,86.99
2023-05-20T00:59:48.199Z,87.01
2023-05-20T01:00:51.927Z,87.15
2023-05-20T01:01:57.661Z,86.95
2023-05-20T01:03:01.333Z,87.01
2023-05-20T01:04:06.961Z,87.17
2023-05-20T01:05:12.082Z,86.88
2023-05-20T01:06:16.663Z,87.10
2023-05-20T01:07:21.008Z,87.38
2023-05-20T01:08:27.117Z,87.18
2023-05-20T01:09:33.547Z,87.39
2023-05-20T01:10:43.926Z,87.40
2023-05-20T01:11:53.263Z,87.55
2023-05-20T01:13:04.700Z,87.93
2023-05-20T01:14:09.488Z,87.77
2023-05-20T01:15:17.039Z,88.03
2023-05-20T01:16:23.478Z,88.12
2023-05-20T01:17:30.022Z,87.76
2023-05-20T01:18:35.015Z,87.85
2023-05-20T01:19:44.458Z,87.76
2023-05-20T01:20:53.621Z,87.99
2023-05-20T01:21:59.660Z,87.97
2023-05-20T01:23:06.064Z,87.99
2023-05-20T01:24:09.772Z,88.16
2023-05-20T01:25:15.019Z,88.08
2023-05-20T01:26:19.962Z,88.16
2023-05-20T01:27:25.104Z,87.85
2023-05-20T01:28:31.143Z,88.16
2023-05-20T01:29:37.239Z,88.22
2023-05-20T01:30:50.143Z,88.13
2023-05-20T01:31:59.288Z,88.25
2023-05-20T01:33:07.613Z,87.95
2023-05-20T01:34:13.052Z,88.18
2023-05-20T01:35:18.254Z,88.41
2023-05-20T01:36:25.460Z,88.49
2023-05-20T01:37:29.348Z,88.44
2023-05-20T01:38:36.582Z,88.37
2023-05-20T01:39:41.834Z,88.26
2023-05-20T01:40:47.675Z,88.20
2023-05-20T01:41:51.148Z,88.08
2023-05-20T01:42:57.371Z,88.50
2023-05-20T01:44:01.469Z,88.12
2023-05-20T01:45:07.886Z,88.25
2023-05-20T01:46:11.410Z,88.41
2023-05-20T01:47:16.421Z,88.44
2023-05-20T01:48:20.076Z,88.23
2023-05-20T01:49:24.626Z,88.30
2023-05-20T01:50:28.147Z,88.24
2023-05-20T01:51:33.827Z,88.33
2023-05-20T01:52:37.392Z,88.31
2023-05-20T01:53:43.786Z,88.29
2023-05-20T01:54:52.275Z,88.41
2023-05-20T01:55:56.341Z,88.43
2023-05-20T01:56:59.815Z,88.33
2023-05-20T01:58:05.019Z,88.35
2023-05-20T01:59:14.306Z,88.48
2023-05-20T02:00:20.002Z,88.42
2023-05-20T02:01:25.994Z,88.53
2023-05-20T02:02:32.534Z,88.81
2023-05-20T02:03:37.453Z,88.90
2023-05-20T02:04:48.136Z,88.65
2023-05-20T02:05:51.015Z,89.26
2023-05-20T02:06:54.734Z,89.14
2023-05-20T02:07:57.846Z,89.38
2023-05-20T02:09:04.640Z,89.21
2023-05-20T02:10:10.174Z,89.39
2023-05-20T02:11:15.172Z,89.46
2023-05-20T02:12:19.012Z,89.58
2023-05-20T02:13:24.359Z,89.59
2023-05-20T02:14:27.718Z,89.68
2023-05-20T02:15:32.317Z,89.79
2023-05-20T02:16:37.699Z,89.73
2023-05-20T02:17:43.808Z,89.73
2023-05-20T02:18:48.095Z,90.06
2023-05-20T02:19:52.371Z,89.98
2023-05-20T02:20:56.631Z,90.27
2023-05-20T02:22:00.175Z,90.04
2023-05-20T02:23:06.099Z,90.03
2023-05-20T02:24:10.966Z,90.08
2023-05-20T02:25:15.006Z,90.12
2023-05-20T02:26:18.543Z,90.32
2023-05-20T02:27:22.989Z,90.18
2023-05-20T02:28:26.616Z,90.14
2023-05-20T02:29:31.522Z,90.19
2023-05-20T02:30:35.014Z,89.85
2023-05-20T02:31:39.742Z,89.93
2023-05-20T02:32:42.732Z,90.15
2023-05-20T02:33:47.315Z,89.98
2023-05-20T02:34:51.709Z,90.15
2023-05-20T02:35:54.707Z,90.15
2023-05-20T02:36:59.232Z,89.87
2023-05-20T02:38:02.331Z,89.92
2023-05-20T02:39:06.818Z,90.00
2023-05-20T02:40:12.382Z,89.79
2023-05-20T02:41:16.516Z,89.97
2023-05-20T02:42:19.534Z,89.88
2023-05-20T02:43:23.549Z,90.03
2023-05-20T02:44:26.847Z,89.78
2023-05-20T02:45:31.433Z,89.74
2023-05-20T02:46:35.058Z,89.84
2023-05-20T02:47:39.820Z,89.82
2023-05-20T02:48:43.035Z,89.74
2023-05-20T02:49:48.047Z,89.72
2023-05-20T02:50:51.343Z,89.67
2023-05-20T02:51:55.547Z,89.63
2023-05-20T02:52:59.364Z,89.84
2023-05-20T02:54:03.983Z,90.08
2023-05-20T02:55:08.533Z,89.69
2023-05-20T02:56:14.464Z,90.01
2023-05-20T02:57:17.853Z,90.04
2023-05-20T02:58:26.931Z,90.12
2023-05-20T02:59:30.348Z,90.12
2023-05-20T03:01:18.805Z,89.96
2023-05-20T03:07:08.500Z,90.82
2023-05-20T03:09:00.611Z,90.99
2023-05-20T03:10:45.421Z,91.01
2023-05-20T03:12:00.067Z,91.20
2023-05-20T03:13:43.747Z,90.88
2023-05-20T03:15:25.434Z,91.22
2023-05-20T03:16:30.335Z,91.08
2023-05-20T03:17:34.874Z,91.17
2023-05-20T03:18:37.799Z,90.90
2023-05-20T03:19:42.544Z,90.78
2023-05-20T03:20:47.378Z,90.85
2023-05-20T03:21:52.249Z,90.37
2023-05-20T03:23:00.602Z,90.53
2023-05-20T03:24:06.391Z,90.48
2023-05-20T03:25:11.943Z,90.20
2023-05-20T03:26:16.843Z,90.62
2023-05-20T03:27:22.321Z,90.37
2023-05-20T03:28:29.201Z,90.30
2023-05-20T03:29:44.929Z,90.35
2023-05-20T03:30:50.301Z,90.17
2023-05-20T03:31:54.875Z,90.31
2023-05-20T03:33:06.678Z,90.27
2023-05-20T03:34:10.389Z,90.11
2023-05-20T03:35:14.917Z,90.38
2023-05-20T03:36:19.953Z,90.35
2023-05-20T03:37:23.503Z,90.22
2023-05-20T03:38:28.285Z,90.52
2023-05-20T03:39:32.116Z,90.24
2023-05-20T03:40:36.577Z,90.55
2023-05-20T03:41:40.729Z,90.47
2023-05-20T03:42:46.469Z,90.00
2023-05-20T03:43:49.870Z,90.19
2023-05-20T03:44:54.489Z,90.29
2023-05-20T03:45:57.741Z,90.26
2023-05-20T03:47:02.359Z,90.43
2023-05-20T03:48:06.210Z,90.11
2023-05-20T03:49:16.852Z,90.27
2023-05-20T03:50:19.986Z,90.32
2023-05-20T03:51:24.625Z,90.24
2023-05-20T03:52:27.682Z,90.42
2023-05-20T03:53:32.330Z,90.34
2023-05-20T03:54:36.845Z,90.02
2023-05-20T03:55:41.287Z,90.33
2023-05-20T03:56:45.155Z,90.39
2023-05-20T03:57:50.604Z,90.26
2023-05-20T03:58:54.128Z,90.56
2023-05-20T03:59:58.604Z,90.15
2023-05-20T04:01:01.915Z,90.21
2023-05-20T04:02:08.918Z,90.34
2023-05-20T04:03:13.013Z,90.09
2023-05-20T04:04:17.447Z,90.34
2023-05-20T04:05:34.787Z,90.45
2023-05-20T04:07:03.123Z,90.51
2023-05-20T04:08:11.075Z,90.68
2023-05-20T04:09:22.933Z,90.89
2023-05-20T04:10:26.456Z,90.68
2023-05-20T04:11:30.679Z,90.68
2023-05-20T04:12:36.389Z,90.57
2023-05-20T04:13:42.432Z,90.40
2023-05-20T04:14:46.049Z,90.73
2023-05-20T04:15:52.156Z,90.90
2023-05-20T04:16:56.636Z,90.87
2023-05-20T04:18:02.039Z,90.57
2023-05-20T04:19:05.678Z,90.62
2023-05-20T04:20:12.379Z,90.80
2023-05-20T04:21:23.325Z,90.84
2023-05-20T04:22:28.009Z,90.71
2023-05-20T04:23:32.088Z,90.95
2023-05-20T04:24:38.868Z,90.77
2023-05-20T04:25:43.958Z,90.80
2023-05-20T04:26:53.295Z,90.94
2023-05-20T04:28:02.370Z,90.84
2023-05-20T04:29:08.766Z,90.86
2023-05-20T04:30:14.135Z,90.74
2023-05-20T04:31:21.678Z,91.06
2023-05-20T04:32:25.606Z,91.05
2023-05-20T04:33:31.514Z,91.01
2023-05-20T04:34:37.723Z,90.96
2023-05-20T04:35:43.574Z,91.18
2023-05-20T04:36:49.860Z,90.85
2023-05-20T04:37:56.180Z,90.89
2023-05-20T04:38:59.303Z,91.08
2023-05-20T04:40:06.733Z,91.20
2023-05-20T04:41:15.166Z,91.09
2023-05-20T04:42:22.640Z,91.04
2023-05-20T04:43:25.687Z,91.02
2023-05-20T04:44:46.680Z,90.92
2023-05-20T04:45:50.366Z,91.11
2023-05-20T04:46:54.884Z,90.72
2023-05-20T04:47:59.451Z,91.04
2023-05-20T04:49:05.076Z,90.93
2023-05-20T04:50:11.251Z,91.20
2023-05-20T04:51:16.638Z,90.96
2023-05-20T04:52:21.816Z,91.04
2023-05-20T04:53:26.855Z,90.93
2023-05-20T04:54:30.264Z,91.06
2023-05-20T04:55:38.366Z,90.90
2023-05-20T04:56:41.896Z,90.84
2023-05-20T04:57:46.921Z,90.96
2023-05-20T04:58:50.164Z,91.19
2023-05-20T04:59:59.564Z,91.09
2023-05-20T05:01:03.606Z,91.19
2023-05-20T05:02:08.700Z,91.13
2023-05-20T05:03:13.347Z,91.03
2023-05-20T05:04:18.604Z,91.19
2023-05-20T05:05:30.115Z,91.09
2023-05-20T05:06:35.964Z,91.27
2023-05-20T05:07:40.367Z,91.34
2023-05-20T05:08:44.571Z,91.35
2023-05-20T05:09:48.102Z,91.34
2023-05-20T05:10:52.404Z,91.24
2023-05-20T05:11:55.924Z,91.25
2023-05-20T05:13:01.473Z,91.52
2023-05-20T05:14:05.060Z,91.36
2023-05-20T05:15:11.735Z,91.67
2023-05-20T05:16:15.121Z,91.31
2023-05-20T05:17:19.972Z,91.61
2023-05-20T05:18:23.342Z,91.22
2023-05-20T05:19:27.431Z,91.64
2023-05-20T05:20:30.803Z,91.67
2023-05-20T05:21:35.531Z,91.67
2023-05-20T05:22:40.633Z,91.52
2023-05-20T05:23:45.515Z,91.59
2023-05-20T05:25:26.868Z,91.56
2023-05-20T05:26:38.270Z,91.87
2023-05-20T05:28:02.166Z,92.13
2023-05-20T05:29:11.799Z,92.32
2023-05-20T05:30:22.890Z,92.44
2023-05-20T05:31:27.909Z,92.24
2023-05-20T05:32:31.240Z,92.33
2023-05-20T05:33:36.771Z,92.28
2023-05-20T05:34:40.278Z,92.42
2023-05-20T05:35:45.745Z,92.45
2023-05-20T05:36:48.970Z,92.32
2023-05-20T05:37:53.780Z,92.51
2023-05-20T05:38:57.378Z,92.52
2023-05-20T05:40:01.831Z,92.55
2023-05-20T05:41:07.667Z,92.37
2023-05-20T05:42:11.722Z,92.17
2023-05-20T05:43:16.597Z,92.17
2023-05-20T05:44:39.187Z,92.40
2023-05-20T05:45:49.659Z,92.56
2023-05-20T05:46:53.041Z,92.62
2023-05-20T05:47:57.599Z,92.78
2023-05-20T05:49:01.000Z,92.74
2023-05-20T05:50:06.411Z,92.39
2023-05-20T05:51:09.706Z,92.41
2023-05-20T05:52:13.728Z,92.52
2023-05-20T05:53:18.906Z,92.48
2023-05-20T05:54:26.466Z,92.53
2023-05-20T05:55:30.084Z,92.55
2023-05-20T05:56:34.994Z,92.42
2023-05-20T05:57:38.514Z,92.55
2023-05-20T05:58:43.339Z,92.65
2023-05-20T05:59:46.762Z,92.48
2023-05-20T06:00:55.263Z,92.79
2023-05-20T06:01:58.837Z,92.14
2023-05-20T06:03:03.397Z,92.55
2023-05-20T06:04:07.498Z,92.40
2023-05-20T06:05:12.538Z,92.59
2023-05-20T06:06:17.685Z,92.76
2023-05-20T06:07:21.252Z,92.75
2023-05-20T06:08:31.676Z,92.71
2023-05-20T06:09:37.320Z,92.28
2023-05-20T06:10:41.770Z,92.70
2023-05-20T06:11:48.889Z,92.56
2023-05-20T06:12:55.160Z,92.51
2023-05-20T06:13:59.116Z,92.96
2023-05-20T06:15:04.020Z,92.73
2023-05-20T06:16:09.019Z,92.65
2023-05-20T06:17:15.693Z,92.50
2023-05-20T06:18:19.371Z,92.54
2023-05-20T06:19:24.154Z,92.59
2023-05-20T06:20:27.823Z,92.60
2023-05-20T06:21:33.872Z,92.68
2023-05-20T06:22:37.237Z,92.83
2023-05-20T06:23:41.023Z,93.02
2023-05-20T06:24:44.017Z,92.67
2023-05-20T06:25:48.822Z,92.95
2023-05-20T06:26:52.750Z,92.88
2023-05-20T06:27:57.178Z,92.99
2023-05-20T06:29:02.142Z,92.79
2023-05-20T06:30:06.798Z,92.89
2023-05-20T06:31:12.681Z,92.85
2023-05-20T06:32:16.465Z,93.04
2023-05-20T06:33:32.953Z,92.98
2023-05-20T06:34:36.289Z,93.26
2023-05-20T06:35:41.226Z,93.33
2023-05-20T06:36:44.531Z,92.99
2023-05-20T06:37:48.964Z,93.42
2023-05-20T06:39:01.104Z,93.56
2023-05-20T06:40:06.018Z,93.29
2023-05-20T06:41:09.252Z,93.28
2023-05-20T06:42:13.030Z,93.37
2023-05-20T06:43:16.334Z,93.29
2023-05-20T06:44:32.083Z,93.26
2023-05-20T06:45:44.154Z,93.35
2023-05-20T06:46:48.901Z,93.67
2023-05-20T06:47:54.602Z,93.36
2023-05-20T06:48:59.776Z,93.49
2023-05-20T06:50:03.350Z,93.80
2023-05-20T06:51:09.808Z,93.45
2023-05-20T06:52:13.256Z,93.73
2023-05-20T06:53:20.929Z,93.42
2023-05-20T06:54:26.813Z,93.52
2023-05-20T06:55:31.382Z,93.57
2023-05-20T06:56:34.975Z,93.63
2023-05-20T06:57:39.578Z,93.33
2023-05-20T06:58:56.867Z,93.36
2023-05-20T07:00:00.763Z,93.60
2023-05-20T07:01:09.813Z,93.53
2023-05-20T07:02:14.739Z,93.33
2023-05-20T07:03:19.446Z,93.21
2023-05-20T07:04:36.304Z,93.21
2023-05-20T07:05:43.712Z,93.27
2023-05-20T07:06:47.597Z,93.25
2023-05-20T07:07:52.169Z,93.05
2023-05-20T07:08:55.631Z,93.13
2023-05-20T07:10:00.300Z,93.03
2023-05-20T07:11:04.335Z,93.09
2023-05-20T07:12:09.552Z,92.97
2023-05-20T07:13:13.828Z,92.93
2023-05-20T07:14:19.006Z,93.01
2023-05-20T07:15:22.192Z,92.86
2023-05-20T07:16:26.732Z,92.75
2023-05-20T07:17:32.054Z,92.66
2023-05-20T07:18:36.959Z,92.54
2023-05-20T07:19:40.888Z,92.53
2023-05-20T07:20:45.854Z,92.50
2023-05-20T07:21:51.093Z,92.28
2023-05-20T07:22:54.780Z,92.51
2023-05-20T07:23:59.260Z,92.41
2023-05-20T07:25:05.894Z,92.24
2023-05-20T07:26:10.179Z,92.50
2023-05-20T07:27:13.304Z,92.47
2023-05-20T07:28:18.822Z,92.26
2023-05-20T07:29:27.883Z,92.25
2023-05-20T07:30:31.507Z,92.03
2023-05-20T07:31:36.799Z,92.05
2023-05-20T07:32:41.998Z,92.15
2023-05-20T07:33:47.136Z,92.26
2023-05-20T07:34:53.168Z,92.22
2023-05-20T07:35:56.496Z,92.04
2023-05-20T07:37:01.650Z,91.94
2023-05-20T07:38:06.146Z,92.17
2023-05-20T07:39:15.004Z,92.06
2023-05-20T07:40:19.487Z,92.26
2023-05-20T07:41:30.914Z,91.92
2023-05-20T07:42:35.324Z,91.94
2023-05-20T07:43:39.029Z,91.88
2023-05-20T07:44:43.685Z,92.04
2023-05-20T07:45:47.026Z,92.16
2023-05-20T07:46:51.768Z,92.50
2023-05-20T07:47:56.826Z,92.57
2023-05-20T07:49:01.500Z,92.71
2023-05-20T07:50:05.331Z,92.76
2023-05-20T07:51:09.418Z,92.63
2023-05-20T07:52:13.820Z,92.85
2023-05-20T07:53:19.918Z,93.04
2023-05-20T07:54:26.144Z,92.94
2023-05-20T07:55:29.592Z,93.08
2023-05-20T07:56:35.160Z,92.97
2023-05-20T07:57:38.726Z,93.08
2023-05-20T07:58:44.071Z,93.15
2023-05-20T07:59:48.019Z,93.25
2023-05-20T08:00:52.614Z,93.22
2023-05-20T08:01:57.089Z,93.19
2023-05-20T08:03:03.254Z,93.07
2023-05-20T08:04:06.826Z,93.16
2023-05-20T08:05:11.773Z,93.22
2023-05-20T08:06:16.050Z,93.52
2023-05-20T08:07:20.868Z,93.38
2023-05-20T08:08:24.728Z,93.23
2023-05-20T08:09:33.740Z,93.20
2023-05-20T08:10:38.894Z,93.35
2023-05-20T08:11:47.508Z,93.38
2023-05-20T08:13:14.870Z,93.54
2023-05-20T08:14:20.157Z,93.59
2023-05-20T08:15:24.428Z,93.83
2023-05-20T08:16:28.530Z,93.50
2023-05-20T08:17:33.451Z,93.44
2023-05-20T08:18:39.718Z,93.67
2023-05-20T08:19:42.848Z,93.35
2023-05-20T08:20:46.915Z,93.54
2023-05-20T08:21:50.041Z,93.47
2023-05-20T08:22:54.259Z,93.23
2023-05-20T08:23:59.001Z,93.40
2023-05-20T08:25:01.773Z,93.26
2023-05-20T08:26:06.167Z,93.05
2023-05-20T08:27:09.919Z,93.28
2023-05-20T08:28:14.668Z,93.32
2023-05-20T08:29:25.093Z,93.22
2023-05-20T08:30:32.337Z,93.28
2023-05-20T08:31:38.317Z,93.20
2023-05-20T08:32:43.045Z,93.48
2023-05-20T08:33:48.736Z,93.36
2023-05-20T08:34:53.430Z,93.25
2023-05-20T08:35:58.016Z,93.07
2023-05-20T08:37:01.957Z,93.22
2023-05-20T08:38:06.546Z,93.26
2023-05-20T08:39:10.490Z,93.11
2023-05-20T08:40:16.023Z,93.27
2023-05-20T08:41:29.052Z,93.29
2023-05-20T08:42:34.536Z,93.01
2023-05-20T08:43:38.570Z,93.17
2023-05-20T08:44:44.466Z,92.95
2023-05-20T08:45:47.807Z,92.92
2023-05-20T08:46:53.493Z,93.18
2023-05-20T08:47:58.929Z,93.18
2023-05-20T08:49:07.512Z,93.11
2023-05-20T08:50:12.847Z,93.07
2023-05-20T08:51:20.343Z,92.88
2023-05-20T08:52:24.581Z,92.92
2023-05-20T08:53:32.064Z,93.01
2023-05-20T08:54:45.500Z,92.96
2023-05-20T08:55:54.760Z,92.90
2023-05-20T08:57:00.713Z,93.08
2023-05-20T08:58:05.344Z,92.74
2023-05-20T08:59:11.844Z,92.75
2023-05-20T09:00:18.694Z,92.82
2023-05-20T09:01:32.471Z,92.76
2023-05-20T09:02:40.562Z,92.82
2023-05-20T09:03:45.728Z,92.84
2023-05-20T09:04:52.724Z,92.86
2023-05-20T09:06:05.265Z,92.95
2023-05-20T09:07:10.129Z,93.01
2023-05-20T09:08:15.690Z,92.95
2023-05-20T09:10:49.663Z,92.67
2023-05-20T09:11:54.472Z,92.64
2023-05-20T09:12:58.605Z,92.48
2023-05-20T09:14:03.228Z,92.63
2023-05-20T09:15:08.277Z,92.63
2023-05-20T09:16:13.775Z,92.45
2023-05-20T09:17:22.957Z,92.23
2023-05-20T09:18:31.636Z,92.25
2023-05-20T09:19:35.167Z,92.08
2023-05-20T09:20:41.761Z,91.91
2023-05-20T09:21:48.439Z,91.79
2023-05-20T09:22:54.697Z,91.66
2023-05-20T09:23:59.856Z,91.66
2023-05-20T09:25:08.157Z,91.83
2023-05-20T09:26:13.766Z,91.49
2023-05-20T09:27:18.898Z,91.34
2023-05-20T09:28:25.673Z,90.93
2023-05-20T09:29:35.845Z,90.51
2023-05-20T09:30:39.355Z,90.17
2023-05-20T09:31:45.016Z,89.69
2023-05-20T09:32:54.379Z,89.19
2023-05-20T09:33:59.224Z,89.05
2023-05-20T09:35:04.519Z,88.63
2023-05-20T09:36:12.806Z,88.35
2023-05-20T09:37:30.484Z,88.21
2023-05-20T09:38:39.327Z,87.92
2023-05-20T09:39:51.169Z,87.46
2023-05-20T09:40:57.037Z,87.38
2023-05-20T09:42:07.796Z,87.10
2023-05-20T09:43:13.585Z,87.08
2023-05-20T09:44:38.601Z,86.44
2023-05-20T09:45:43.986Z,86.55
2023-05-20T09:46:49.074Z,86.23
2023-05-20T09:47:54.596Z,85.87
2023-05-20T09:48:59.288Z,85.64
2023-05-20T09:50:04.673Z,85.64
2023-05-20T09:51:11.580Z,85.06
2023-05-20T09:52:20.693Z,84.64
2023-05-20T09:53:45.327Z,84.70
2023-05-20T09:57:23.826Z,84.09
2023-05-20T09:58:44.686Z,83.95
2023-05-20T10:00:36.349Z,83.63
2023-05-20T10:01:41.607Z,83.95
2023-05-20T10:02:48.036Z,83.46
2023-05-20T10:03:54.377Z,83.52
2023-05-20T10:05:01.459Z,83.12
2023-05-20T10:06:28.171Z,82.64
2023-05-20T10:07:49.862Z,82.17
2023-05-20T10:09:14.118Z,81.85
2023-05-20T10:10:34.187Z,82.07
2023-05-20T10:11:49.589Z,81.45
2023-05-20T10:13:05.857Z,81.02
2023-05-20T10:14:33.410Z,80.50
2023-05-20T10:15:48.002Z,80.25
2023-05-20T10:17:00.296Z,80.09
2023-05-20T10:18:13.246Z,79.83
2023-05-20T10:19:30.638Z,79.46
2023-05-20T10:20:34.375Z,79.31
2023-05-20T10:21:41.108Z,79.07
2023-05-20T10:22:45.640Z,78.30
2023-05-20T10:23:50.438Z,78.30
2023-05-20T10:25:01.121Z,77.77
2023-05-20T10:26:07.893Z,77.58
2023-05-20T10:27:15.086Z,77.24
2023-05-20T10:28:26.283Z,77.02
2023-05-20T10:29:45.473Z,76.63
2023-05-20T10:30:51.493Z,76.99
2023-05-20T10:31:56.401Z,76.81
2023-05-20T10:33:07.408Z,76.80
2023-05-20T10:34:18.599Z,76.06
2023-05-20T10:35:27.938Z,75.80
2023-05-20T10:36:32.450Z,76.16
2023-05-20T10:37:45.966Z,75.48
2023-05-20T10:38:54.084Z,75.55
2023-05-20T10:40:12.481Z,74.88
2023-05-20T10:41:29.620Z,75.31
2023-05-20T10:42:34.933Z,74.99
2023-05-20T10:43:38.495Z,75.08
2023-05-20T10:44:44.614Z,74.73
2023-05-20T10:45:52.228Z,74.46
2023-05-20T10:48:21.900Z,74.01
2023-05-20T10:49:47.301Z,74.12
2023-05-20T10:50:51.122Z,74.64
2023-05-20T10:51:55.774Z,74.86
2023-05-20T10:53:25.614Z,74.82
2023-05-20T10:54:37.021Z,74.97
2023-05-20T10:55:43.329Z,74.96
2023-05-20T10:56:53.169Z,74.78
2023-05-20T10:57:58.000Z,74.66
2023-05-20T10:59:03.600Z,74.73
2023-05-20T11:00:11.136Z,74.76
2023-05-20T11:01:27.927Z,74.43
2023-05-20T11:02:35.835Z,74.14
2023-05-20T11:03:41.439Z,74.03
2023-05-20T11:04:46.789Z,73.82
2023-05-20T11:05:52.039Z,73.93
2023-05-20T11:06:57.680Z,73.41
2023-05-20T11:08:13.977Z,73.59
2023-05-20T11:09:31.360Z,73.23
2023-05-20T11:10:37.647Z,73.48
2023-05-20T11:11:43.663Z,73.33
2023-05-20T11:12:48.628Z,73.18
2023-05-20T11:13:54.182Z,73.17
2023-05-20T11:14:57.524Z,72.83
2023-05-20T11:16:04.904Z,72.81
2023-05-20T11:17:09.532Z,72.70
2023-05-20T11:18:16.952Z,72.59
2023-05-20T11:19:21.912Z,73.02
2023-05-20T11:20:28.088Z,72.07
2023-05-20T11:23:16.105Z,72.11
2023-05-20T11:24:27.435Z,72.05
2023-05-20T11:25:41.411Z,72.17
2023-05-20T11:26:45.542Z,71.60
2023-05-20T11:27:51.325Z,71.72
2023-05-20T11:28:55.352Z,71.56
2023-05-20T11:30:00.487Z,71.27
2023-05-20T11:31:05.293Z,71.40
2023-05-20T11:32:11.104Z,71.16
2023-05-20T11:33:17.206Z,70.78
2023-05-20T11:34:26.407Z,71.01
2023-05-20T11:35:32.550Z,70.76
2023-05-20T11:36:42.383Z,70.55
2023-05-20T11:37:46.438Z,70.27
2023-05-20T11:38:54.474Z,70.10
2023-05-20T11:40:08.630Z,70.00
2023-05-20T11:41:13.191Z,70.03
2023-05-20T11:42:16.555Z,69.54
2023-05-20T11:43:22.458Z,69.89
2023-05-20T11:44:27.649Z,69.57
2023-05-20T11:45:42.281Z,69.95
2023-05-20T11:46:49.157Z,70.01
2023-05-20T11:48:03.988Z,70.16
2023-05-20T11:49:09.744Z,70.14
2023-05-20T11:50:18.948Z,70.34
2023-05-20T11:51:28.904Z,69.87
2023-05-20T11:52:35.675Z,69.58
2023-05-20T11:53:43.217Z,69.96
2023-05-20T11:54:54.774Z,69.69
2023-05-20T11:56:00.729Z,69.70
2023-05-20T11:57:07.119Z,69.91
2023-05-20T11:58:11.551Z,69.63
2023-05-20T11:59:17.127Z,70.10
2023-05-20T12:00:21.668Z,69.79
2023-05-20T12:01:37.826Z,69.59
2023-05-20T12:02:41.609Z,69.63
2023-05-20T12:03:46.285Z,70.09
2023-05-20T12:04:50.206Z,69.60
2023-05-20T12:05:55.804Z,69.85
2023-05-20T12:06:59.301Z,69.68
2023-05-20T12:08:05.234Z,69.65
2023-05-20T12:09:10.329Z,69.85
2023-05-20T12:10:17.962Z,70.04
2023-05-20T12:11:22.287Z,69.94
2023-05-20T12:12:27.118Z,69.79
2023-05-20T12:13:35.568Z,69.94
2023-05-20T12:14:40.119Z,70.00
2023-05-20T12:15:45.044Z,70.00
2023-05-20T12:16:48.357Z,69.87
2023-05-20T12:17:54.489Z,70.33
2023-05-20T12:18:57.555Z,70.53
2023-05-20T12:20:02.821Z,70.57
2023-05-20T12:21:08.039Z,70.38
2023-05-20T12:22:13.030Z,70.92
2023-05-20T12:23:16.469Z,70.79
2023-05-20T12:24:20.720Z,70.70
2023-05-20T12:25:32.668Z,70.85
2023-05-20T12:26:36.730Z,71.07
2023-05-20T12:27:40.674Z,71.25
2023-05-20T12:28:43.372Z,71.07
2023-05-20T12:29:48.593Z,71.09
2023-05-20T12:30:51.858Z,71.41
2023-05-20T12:31:57.163Z,71.37
2023-05-20T12:33:00.334Z,71.62
2023-05-20T12:34:06.009Z,71.56
2023-05-20T12:35:10.589Z,71.45
2023-05-20T12:36:15.222Z,71.40
2023-05-20T12:37:20.245Z,71.17
2023-05-20T12:38:25.123Z,71.52
2023-05-20T12:39:28.540Z,71.31
2023-05-20T12:40:35.399Z,71.32
2023-05-20T12:41:39.344Z,71.26
2023-05-20T12:42:43.712Z,71.21
2023-05-20T12:43:46.982Z,70.92
2023-05-20T12:44:51.656Z,70.85
2023-05-20T12:45:55.566Z,70.62
2023-05-20T12:47:01.148Z,70.52
2023-05-20T12:48:10.038Z,70.60
2023-05-20T12:49:15.050Z,70.42
2023-05-20T12:50:20.092Z,70.49
2023-05-20T12:51:25.300Z,70.26
2023-05-20T12:52:30.620Z,70.21
2023-05-20T12:53:35.981Z,70.39
2023-05-20T12:54:39.663Z,70.23
2023-05-20T12:55:46.082Z,70.29
2023-05-20T12:56:50.637Z,69.99
2023-05-20T12:57:57.795Z,69.55
2023-05-20T12:59:02.765Z,69.98
2023-05-20T13:00:07.981Z,69.91
2023-05-20T13:01:20.290Z,69.75
2023-05-20T13:02:25.033Z,69.84
2023-05-20T13:03:29.500Z,69.66
2023-05-20T13:04:35.721Z,70.11
2023-05-20T13:05:42.716Z,69.96
2023-05-20T13:06:48.125Z,69.94
2023-05-20T13:07:54.911Z,69.88
2023-05-20T13:08:59.742Z,69.78
2023-05-20T13:10:13.683Z,70.03
2023-05-20T13:11:20.533Z,70.25
2023-05-20T13:12:26.365Z,70.26
2023-05-20T13:13:31.734Z,70.31
2023-05-20T13:14:36.527Z,70.27
2023-05-20T13:15:44.004Z,69.84
2023-05-20T13:16:48.223Z,70.20
2023-05-20T13:17:56.358Z,69.99
2023-05-20T13:19:05.154Z,69.80
2023-05-20T13:20:14.135Z,69.53
2023-05-20T13:21:18.893Z,69.48
2023-05-20T13:22:24.475Z,69.58
2023-05-20T13:23:29.825Z,69.22
2023-05-20T13:24:36.509Z,69.19
2023-05-20T13:25:41.672Z,69.46
2023-05-20T13:26:50.494Z,69.07
2023-05-20T13:27:54.882Z,69.49
2023-05-20T13:29:00.329Z,69.54
2023-05-20T13:30:08.225Z,69.37
2023-05-20T13:31:12.753Z,69.13
2023-05-20T13:32:19.382Z,68.98
2023-05-20T13:33:24.525Z,69.19
2023-05-20T13:34:34.224Z,69.25
2023-05-20T13:35:38.417Z,69.08
2023-05-20T13:36:44.681Z,68.88
2023-05-20T13:37:50.999Z,69.09
2023-05-20T13:38:57.017Z,69.00
2023-05-20T13:40:04.370Z,69.28
2023-05-20T13:41:10.295Z,68.91
2023-05-20T13:42:17.292Z,69.39
2023-05-20T13:43:21.419Z,68.83
2023-05-20T13:44:27.164Z,69.08
2023-05-20T13:45:31.980Z,69.20
2023-05-20T13:46:38.655Z,68.73
2023-05-20T13:47:43.686Z,68.93
2023-05-20T13:48:48.948Z,68.83
2023-05-20T13:49:53.744Z,68.91
2023-05-20T13:50:58.968Z,68.69
2023-05-20T13:52:03.714Z,68.67
2023-05-20T13:53:13.258Z,68.39
2023-05-20T13:54:18.867Z,68.32
2023-05-20T13:55:25.185Z,68.75
2023-05-20T13:56:29.525Z,68.31
2023-05-20T13:57:36.487Z,68.34
2023-05-20T13:58:41.410Z,68.34
2023-05-20T13:59:47.965Z,68.59
2023-05-20T14:00:52.729Z,68.44
2023-05-20T14:02:01.696Z,68.23
2023-05-20T14:03:10.374Z,67.93
2023-05-20T14:04:17.857Z,68.08
2023-05-20T14:05:27.744Z,67.79
2023-05-20T14:06:48.781Z,67.94
2023-05-20T14:07:52.564Z,68.10
2023-05-20T14:08:59.949Z,68.08
2023-05-20T14:12:01.127Z,68.22
2023-05-20T14:13:12.516Z,68.06
2023-05-20T14:14:23.325Z,68.29
2023-05-20T14:27:28.401Z,68.59
2023-05-20T14:40:59.369Z,69.57
2023-05-20T14:56:37.936Z,70.89
2023-05-20T14:58:27.552Z,70.28
2023-05-20T15:52:36.607Z,71.50
2023-05-20T15:53:40.751Z,71.37
2023-05-20T15:54:44.355Z,71.01
2023-05-20T15:55:48.124Z,70.95
2023-05-20T15:56:50.713Z,70.94
2023-05-20T15:57:54.398Z,71.10
2023-05-20T15:58:58.120Z,70.73
2023-05-20T16:00:01.606Z,70.36
2023-05-20T16:01:11.451Z,70.47
2023-05-20T16:02:14.787Z,70.71
2023-05-20T16:03:17.815Z,70.37
2023-05-20T16:04:21.451Z,70.42